createdAt,value
2018-07-12T00:00:35.364Z,29.80
2018-07-12T00:03:03.155Z,36.50
2018-07-12T00:05:30.943Z,27.57
2018-07-12T00:07:59.394Z,29.37
2018-07-12T00:10:27.659Z,30.57
2018-07-12T00:12:55.494Z,38.63
2018-07-12T00:15:23.270Z,32.00
2018-07-12T00:17:51.207Z,29.20
2018-07-12T00:20:19.010Z,29.63
2018-07-12T00:22:46.776Z,32.70
2018-07-12T00:25:14.555Z,30.33
2018-07-12T00:27:42.316Z,32.47
2018-07-12T00:30:10.096Z,31.50
2018-07-12T00:32:37.864Z,30.67
2018-07-12T00:35:05.653Z,30.27
2018-07-12T00:37:33.803Z,31.77
2018-07-12T00:40:06.329Z,31.73
2018-07-12T00:42:40.524Z,30.00
2018-07-12T00:45:08.310Z,32.40
2018-07-12T00:47:36.940Z,28.30
2018-07-12T00:50:05.810Z,31.27
2018-07-12T00:52:34.518Z,30.83
2018-07-12T00:55:06.146Z,30.30
2018-07-12T00:57:33.905Z,28.83
2018-07-12T01:00:05.549Z,28.57
2018-07-12T01:02:33.473Z,26.40
2018-07-12T01:05:04.504Z,28.47
2018-07-12T01:07:32.291Z,28.23
2018-07-12T01:10:00.075Z,28.73
2018-07-12T01:12:31.070Z,28.53
2018-07-12T01:14:58.890Z,28.50
2018-07-12T01:17:26.657Z,28.43
2018-07-12T01:19:54.438Z,29.63
2018-07-12T01:22:22.222Z,31.30
2018-07-12T01:24:50.025Z,33.03
2018-07-12T01:27:17.781Z,31.47
2018-07-12T01:29:45.558Z,29.93
2018-07-12T01:32:13.380Z,33.23
2018-07-12T01:34:41.146Z,32.50
2018-07-12T01:37:08.948Z,29.87
2018-07-12T01:39:37.391Z,33.07
2018-07-12T01:42:05.155Z,33.97
2018-07-12T01:44:32.945Z,34.60
2018-07-12T01:47:00.723Z,35.77
2018-07-12T01:49:28.519Z,34.30
2018-07-12T01:51:56.298Z,35.33
2018-07-12T01:54:24.056Z,32.57
2018-07-12T01:56:51.897Z,30.87
2018-07-12T01:59:19.666Z,33.03
2018-07-12T02:01:47.454Z,33.77
2018-07-12T02:04:16.050Z,32.73
2018-07-12T02:06:43.852Z,34.20
2018-07-12T02:09:11.655Z,36.07
2018-07-12T02:11:40.194Z,34.90
2018-07-12T02:14:08.132Z,36.43
2018-07-12T02:16:35.998Z,34.00
2018-07-12T02:19:03.770Z,34.20
2018-07-12T02:21:31.566Z,32.33
2018-07-12T02:23:59.339Z,33.93
2018-07-12T02:26:27.132Z,33.13
2018-07-12T02:28:54.932Z,32.93
2018-07-12T02:31:22.931Z,32.90
2018-07-12T02:33:50.702Z,37.10
2018-07-12T02:36:18.520Z,34.07
2018-07-12T02:38:46.378Z,32.97
2018-07-12T02:41:14.827Z,30.10
2018-07-12T02:43:42.590Z,31.27
2018-07-12T02:46:10.718Z,31.93
2018-07-12T02:48:39.135Z,31.53
2018-07-12T02:51:06.951Z,30.90
2018-07-12T02:53:34.802Z,30.67
2018-07-12T02:56:02.596Z,34.07
2018-07-12T02:58:30.378Z,34.77
2018-07-12T03:00:58.155Z,33.07
2018-07-12T03:03:25.930Z,31.27
2018-07-12T03:05:54.280Z,30.70
2018-07-12T03:08:22.063Z,31.23
2018-07-12T03:10:49.823Z,29.60
2018-07-12T03:13:17.632Z,29.43
2018-07-12T03:15:45.406Z,31.27
2018-07-12T03:18:13.407Z,31.17
2018-07-12T03:20:41.192Z,30.47
2018-07-12T03:23:09.004Z,28.63
2018-07-12T03:25:36.772Z,30.70
2018-07-12T03:28:05.358Z,29.37
2018-07-12T03:30:33.114Z,31.63
2018-07-12T03:33:00.922Z,31.30
2018-07-12T03:35:28.704Z,30.47
2018-07-12T03:37:57.856Z,31.17
2018-07-12T03:40:25.932Z,32.73
2018-07-12T03:42:53.932Z,31.97
2018-07-12T03:45:21.694Z,34.20
2018-07-12T03:47:49.809Z,28.73
2018-07-12T03:50:17.579Z,32.73
2018-07-12T03:52:45.381Z,40.30
2018-07-12T03:55:13.199Z,32.90
2018-07-12T03:57:40.974Z,33.90
2018-07-12T04:00:08.813Z,36.67
2018-07-12T04:02:36.580Z,33.03
2018-07-12T04:05:07.471Z,31.90
2018-07-12T04:07:35.243Z,30.87
2018-07-12T04:10:05.808Z,31.03
2018-07-12T04:12:33.604Z,30.80
2018-07-12T04:17:35.453Z,27.13
2018-07-12T04:20:07.597Z,31.30
2018-07-12T04:22:36.578Z,33.03
2018-07-12T04:25:05.872Z,30.33
2018-07-12T04:27:33.665Z,28.90
2018-07-12T04:30:04.867Z,30.20
2018-07-12T04:32:33.164Z,28.83
2018-07-12T04:35:05.607Z,27.93
2018-07-12T04:37:33.382Z,28.57
2018-07-12T04:40:04.844Z,27.53
2018-07-12T04:42:32.650Z,29.03
2018-07-12T04:45:00.441Z,26.93
2018-07-12T04:47:31.115Z,25.17
2018-07-12T04:49:58.902Z,26.33
2018-07-12T04:52:26.663Z,25.20
2018-07-12T04:54:54.442Z,26.07
2018-07-12T04:57:22.238Z,25.23
2018-07-12T04:59:50.046Z,26.50
2018-07-12T05:02:17.845Z,27.43
2018-07-12T05:04:45.622Z,26.27
2018-07-12T05:07:13.745Z,26.37
2018-07-12T05:09:41.516Z,23.73
2018-07-12T05:12:09.292Z,23.83
2018-07-12T05:14:37.098Z,23.20
2018-07-12T05:17:04.933Z,23.03
2018-07-12T05:19:33.599Z,24.47
2018-07-12T05:22:01.398Z,25.07
2018-07-12T05:24:29.326Z,25.00
2018-07-12T05:26:57.107Z,24.77
2018-07-12T05:29:24.899Z,23.17
2018-07-12T05:31:52.674Z,23.73
2018-07-12T05:34:20.523Z,22.53
2018-07-12T05:36:56.419Z,21.70
2018-07-12T05:39:25.947Z,23.63
2018-07-12T05:41:55.052Z,20.77
2018-07-12T05:44:24.043Z,20.43
2018-07-12T05:46:53.003Z,21.87
2018-07-12T05:49:22.263Z,21.10
2018-07-12T05:51:51.350Z,21.03
2018-07-12T05:54:21.070Z,21.10
2018-07-12T05:56:50.351Z,18.80
2018-07-12T05:59:19.888Z,22.47
2018-07-12T06:02:00.076Z,21.23
2018-07-12T06:04:29.504Z,21.23
2018-07-12T06:06:59.186Z,22.30
2018-07-12T06:09:29.310Z,21.87
2018-07-12T06:11:58.510Z,21.63
2018-07-12T06:14:28.483Z,23.23
2018-07-12T06:16:57.740Z,23.17
2018-07-12T06:19:26.910Z,23.90
2018-07-12T06:21:56.570Z,22.03
2018-07-12T06:24:25.743Z,23.30
2018-07-12T06:26:54.935Z,22.07
2018-07-12T06:29:24.276Z,21.70
2018-07-12T06:31:53.344Z,23.57
2018-07-12T06:34:22.467Z,26.60
2018-07-12T06:36:51.724Z,25.87
2018-07-12T06:39:20.684Z,25.70
2018-07-12T06:41:49.968Z,28.83
2018-07-12T06:44:19.541Z,29.67
2018-07-12T06:46:49.227Z,30.60
2018-07-12T06:49:18.243Z,32.17
2018-07-12T06:51:47.256Z,37.77
2018-07-12T06:54:17.002Z,37.33
2018-07-12T06:56:46.029Z,39.80
2018-07-12T06:59:15.572Z,39.53
2018-07-12T07:01:44.770Z,42.83
2018-07-12T07:04:14.052Z,48.27
2018-07-12T07:06:43.347Z,43.90
2018-07-12T07:09:12.907Z,34.73
2018-07-12T07:11:41.838Z,34.83
2018-07-12T07:14:11.064Z,36.30
2018-07-12T07:16:40.321Z,37.13
2018-07-12T07:19:10.016Z,34.50
2018-07-12T07:21:39.134Z,34.73
2018-07-12T07:24:08.108Z,34.47
2018-07-12T07:26:37.214Z,33.70
2018-07-12T07:29:06.326Z,36.40
2018-07-12T07:31:35.543Z,37.10
2018-07-12T07:34:05.390Z,37.70
2018-07-12T07:36:34.872Z,39.33
2018-07-12T07:39:05.123Z,41.13
2018-07-12T07:41:34.179Z,40.93
2018-07-12T07:44:03.965Z,39.53
2018-07-12T07:46:33.843Z,38.20
2018-07-12T07:49:03.078Z,41.20
2018-07-12T07:51:32.417Z,35.57
2018-07-12T07:54:01.579Z,34.57
2018-07-12T07:56:30.695Z,33.90
2018-07-12T07:59:00.592Z,33.63
2018-07-12T08:01:29.809Z,34.57
2018-07-12T08:03:59.275Z,39.10
2018-07-12T08:06:28.608Z,37.83
2018-07-12T08:08:57.791Z,42.60
2018-07-12T08:11:26.891Z,44.97
2018-07-12T08:13:56.371Z,44.20
2018-07-12T08:16:25.491Z,42.50
2018-07-12T08:18:54.819Z,44.80
2018-07-12T08:21:24.090Z,41.87
2018-07-12T08:23:53.769Z,42.57
2018-07-12T08:26:22.753Z,41.63
2018-07-12T08:28:51.965Z,40.80
2018-07-12T08:31:21.854Z,41.73
2018-07-12T08:33:51.536Z,43.23
2018-07-12T08:36:21.312Z,42.17
2018-07-12T08:38:51.980Z,41.93
2018-07-12T08:41:22.047Z,40.77
2018-07-12T08:43:51.247Z,40.40
2018-07-12T08:46:20.433Z,61.97
2018-07-12T08:48:50.301Z,43.13
2018-07-12T08:51:19.651Z,42.00
2018-07-12T08:53:48.871Z,43.03
2018-07-12T08:56:18.831Z,50.17
2018-07-12T08:58:47.974Z,43.73
2018-07-12T09:01:17.089Z,47.80
2018-07-12T09:03:46.163Z,41.57
2018-07-12T09:06:15.156Z,44.23
2018-07-12T09:08:44.214Z,45.93
2018-07-12T09:11:13.813Z,48.77
2018-07-12T09:13:43.759Z,44.97
2018-07-12T09:16:12.973Z,55.33
2018-07-12T09:18:42.070Z,46.00
2018-07-12T09:21:11.346Z,46.87
2018-07-12T09:23:41.011Z,46.73
2018-07-12T09:26:10.196Z,53.57
2018-07-12T09:28:39.306Z,46.20
2018-07-12T09:31:08.911Z,45.33
2018-07-12T09:33:38.201Z,42.53
2018-07-12T09:36:07.303Z,40.70
2018-07-12T09:38:46.231Z,39.37
2018-07-12T09:41:15.531Z,36.07
2018-07-12T09:43:46.026Z,36.30
2018-07-12T09:46:16.605Z,37.93
2018-07-12T09:48:52.155Z,33.53
2018-07-12T09:51:21.438Z,34.53
2018-07-12T09:53:50.524Z,50.13
2018-07-12T09:56:19.874Z,30.03
2018-07-12T09:58:49.021Z,22.37
2018-07-12T10:01:23.391Z,20.47
2018-07-12T10:03:54.006Z,27.30
2018-07-12T10:06:26.122Z,31.73
2018-07-12T10:08:56.606Z,32.50
2018-07-12T10:11:31.563Z,33.80
2018-07-12T10:14:05.967Z,44.77
2018-07-12T10:16:40.455Z,30.23
2018-07-12T10:19:10.001Z,28.50
2018-07-12T10:21:39.094Z,21.00
2018-07-12T10:24:08.207Z,19.93
2018-07-12T10:26:37.632Z,22.80
2018-07-12T10:29:07.926Z,16.77
2018-07-12T10:31:36.897Z,16.77
2018-07-12T10:34:06.807Z,17.83
2018-07-12T10:36:36.047Z,16.50
2018-07-12T10:39:07.850Z,15.10
2018-07-12T10:41:37.099Z,14.87
2018-07-12T10:44:06.518Z,16.00
2018-07-12T10:46:36.058Z,17.97
2018-07-12T10:49:05.148Z,19.60
2018-07-12T10:51:34.986Z,16.53
2018-07-12T10:54:04.103Z,14.33
2018-07-12T10:56:34.201Z,11.70
2018-07-12T10:59:03.825Z,12.10
2018-07-12T11:01:32.935Z,13.07
2018-07-12T11:04:02.259Z,14.03
2018-07-12T11:06:31.206Z,14.07
2018-07-12T11:09:00.805Z,19.13
2018-07-12T11:11:30.774Z,14.37
2018-07-12T11:14:00.044Z,15.27
2018-07-12T11:16:29.039Z,14.50
2018-07-12T11:18:59.945Z,19.77
2018-07-12T11:21:28.992Z,22.30
2018-07-12T11:23:58.263Z,23.67
2018-07-12T11:26:27.250Z,24.20
2018-07-12T11:28:57.123Z,32.03
2018-07-12T11:31:26.523Z,25.77
2018-07-12T11:33:55.797Z,25.00
2018-07-12T11:36:24.866Z,24.70
2018-07-12T11:38:54.248Z,20.53
2018-07-12T11:41:23.217Z,14.53
2018-07-12T11:43:52.179Z,16.10
2018-07-12T11:46:21.351Z,14.70
2018-07-12T11:48:51.295Z,16.57
2018-07-12T11:51:20.289Z,16.87
2018-07-12T11:53:49.648Z,21.30
2018-07-12T11:56:19.070Z,23.17
2018-07-12T11:58:48.161Z,18.87
2018-07-12T12:01:17.540Z,19.10
2018-07-12T12:03:46.612Z,16.80
2018-07-12T12:06:15.843Z,16.20
2018-07-12T12:08:44.971Z,18.57
2018-07-12T12:11:13.899Z,16.93
2018-07-12T12:13:43.122Z,16.40
2018-07-12T12:16:12.324Z,14.90
2018-07-12T12:18:41.423Z,15.27
2018-07-12T12:21:10.525Z,14.50
2018-07-12T12:23:39.828Z,14.57
2018-07-12T12:26:09.113Z,13.87
2018-07-12T12:28:38.076Z,14.97
2018-07-12T12:31:07.279Z,15.43
2018-07-12T12:33:36.702Z,14.90
2018-07-12T12:36:05.695Z,15.53
2018-07-12T12:38:34.802Z,13.67
2018-07-12T12:41:04.012Z,14.83
2018-07-12T12:43:32.970Z,13.80
2018-07-12T12:46:02.179Z,12.97
2018-07-12T12:48:31.303Z,13.20
2018-07-12T12:51:00.386Z,13.53
2018-07-12T12:53:29.699Z,13.90
2018-07-12T12:55:58.799Z,13.80
2018-07-12T12:58:27.885Z,19.20
2018-07-12T13:00:57.035Z,12.90
2018-07-12T13:03:26.360Z,16.47
2018-07-12T13:05:55.370Z,14.33
2018-07-12T13:08:24.699Z,13.63
2018-07-12T13:10:54.658Z,13.97
2018-07-12T13:13:23.680Z,12.67
2018-07-12T13:15:52.965Z,12.20
2018-07-12T13:18:22.087Z,11.93
2018-07-12T13:20:51.382Z,12.83
2018-07-12T13:23:20.923Z,12.23
2018-07-12T13:25:50.556Z,12.87
2018-07-12T13:28:19.569Z,13.50
2018-07-12T13:30:48.542Z,14.87
2018-07-12T13:33:17.820Z,16.03
2018-07-12T13:35:47.070Z,14.57
2018-07-12T13:38:17.149Z,14.23
2018-07-12T13:40:46.285Z,13.00
2018-07-12T13:43:15.331Z,14.67
2018-07-12T13:45:44.487Z,14.63
2018-07-12T13:48:13.425Z,14.60
2018-07-12T13:50:43.020Z,14.77
2018-07-12T13:53:12.388Z,14.87
2018-07-12T13:55:41.563Z,16.00
2018-07-12T13:58:10.703Z,16.43
2018-07-12T14:00:39.727Z,15.70
2018-07-12T14:03:08.965Z,16.37
2018-07-12T14:05:38.369Z,15.90
2018-07-12T14:08:07.912Z,15.70
2018-07-12T14:10:37.025Z,15.63
2018-07-12T14:13:06.356Z,14.07
2018-07-12T14:15:35.573Z,15.83
2018-07-12T14:18:04.854Z,15.70
2018-07-12T14:20:34.382Z,15.07
2018-07-12T14:23:03.833Z,13.73
2018-07-12T14:25:32.979Z,13.83
2018-07-12T14:28:06.372Z,14.37
2018-07-12T14:30:36.412Z,14.63
2018-07-12T14:33:05.698Z,14.40
2018-07-12T14:35:35.711Z,14.13
2018-07-12T14:38:04.734Z,14.17
2018-07-12T14:40:34.509Z,14.60
2018-07-12T14:43:04.635Z,14.60
2018-07-12T14:45:34.316Z,14.33
2018-07-12T14:48:04.437Z,13.83
2018-07-12T14:50:33.423Z,13.97
2018-07-12T14:53:02.532Z,13.50
2018-07-12T14:55:32.220Z,13.90
2018-07-12T14:58:01.291Z,12.73
2018-07-12T15:00:30.331Z,12.07
2018-07-12T15:02:59.405Z,11.83
2018-07-12T15:05:28.791Z,12.67
2018-07-12T15:07:58.007Z,12.03
2018-07-12T15:10:27.242Z,12.60
2018-07-12T15:12:56.541Z,12.50
2018-07-12T15:15:25.539Z,11.60
2018-07-12T15:17:54.498Z,12.30
2018-07-12T15:20:23.483Z,11.77
2018-07-12T15:22:53.271Z,11.50
2018-07-12T15:25:22.708Z,11.97
2018-07-12T15:27:52.256Z,12.00
2018-07-12T15:30:21.411Z,11.40
2018-07-12T15:32:51.177Z,11.07
2018-07-12T15:35:20.303Z,12.77
2018-07-12T15:37:49.254Z,11.83
2018-07-12T15:40:18.403Z,12.73
2018-07-12T15:42:47.703Z,13.97
2018-07-12T15:45:17.211Z,14.73
2018-07-12T15:47:46.495Z,14.43
2018-07-12T15:50:20.124Z,13.73
2018-07-12T15:52:49.573Z,14.13
2018-07-12T15:55:18.729Z,14.77
2018-07-12T15:57:48.315Z,13.73
2018-07-12T16:00:17.840Z,15.07
2018-07-12T16:02:47.024Z,14.60
2018-07-12T16:05:15.986Z,15.13
2018-07-12T16:07:44.999Z,15.57
2018-07-12T16:10:14.588Z,14.63
2018-07-12T16:12:43.751Z,15.27
2018-07-12T16:15:14.271Z,13.93
2018-07-12T16:17:43.529Z,15.07
2018-07-12T16:20:13.552Z,14.10
2018-07-12T16:22:42.770Z,15.93
2018-07-12T16:25:12.146Z,14.37
2018-07-12T16:27:41.274Z,15.07
2018-07-12T16:30:11.276Z,15.53
2018-07-12T16:32:40.390Z,14.53
2018-07-12T16:35:09.563Z,13.90
2018-07-12T16:37:38.684Z,13.80
2018-07-12T16:40:07.964Z,14.00
2018-07-12T16:42:37.273Z,12.97
2018-07-12T16:45:08.046Z,14.67
2018-07-12T16:47:37.232Z,13.70
2018-07-12T16:50:07.529Z,12.97
2018-07-12T16:52:37.402Z,13.23
2018-07-12T16:55:07.335Z,14.17
2018-07-12T16:57:36.435Z,13.57
2018-07-12T17:00:08.230Z,12.57
2018-07-12T17:02:37.506Z,12.57
2018-07-12T17:05:08.045Z,12.70
2018-07-12T17:07:37.802Z,13.40
2018-07-12T17:10:07.137Z,11.93
2018-07-12T17:12:36.432Z,12.53
2018-07-12T17:15:08.840Z,12.90
2018-07-12T17:17:38.159Z,13.03
2018-07-12T17:20:07.395Z,12.40
2018-07-12T17:22:36.599Z,12.97
2018-07-12T17:25:09.264Z,12.77
2018-07-12T17:27:38.774Z,12.87
2018-07-12T17:30:08.450Z,12.93
2018-07-12T17:32:37.943Z,12.70
2018-07-12T17:35:07.020Z,12.17
2018-07-12T17:37:36.657Z,13.00
2018-07-12T17:40:07.838Z,11.03
2018-07-12T17:42:36.945Z,11.20
2018-07-12T17:45:07.978Z,12.60
2018-07-12T17:47:37.118Z,13.57
2018-07-12T17:50:08.234Z,13.47
2018-07-12T17:52:37.976Z,13.20
2018-07-12T17:55:08.122Z,12.13
2018-07-12T17:57:37.590Z,11.50
2018-07-12T18:00:08.259Z,11.87
2018-07-12T18:02:37.250Z,11.23
2018-07-12T18:05:07.564Z,11.80
2018-07-12T18:07:36.632Z,11.13
2018-07-12T18:10:07.406Z,10.87
2018-07-12T18:12:36.415Z,11.00
2018-07-12T18:15:09.694Z,11.47
2018-07-12T18:17:39.211Z,11.87
2018-07-12T18:20:08.567Z,11.07
2018-07-12T18:22:37.880Z,11.40
2018-07-12T18:25:07.958Z,11.60
2018-07-12T18:27:37.378Z,11.27
2018-07-12T18:30:07.405Z,11.87
2018-07-12T18:32:37.003Z,10.50
2018-07-12T18:35:07.396Z,11.00
2018-07-12T18:37:37.574Z,10.43
2018-07-12T18:40:07.616Z,10.73
2018-07-12T18:42:36.715Z,10.57
2018-07-12T18:45:07.435Z,11.03
2018-07-12T18:47:36.755Z,11.23
2018-07-12T18:50:07.734Z,11.73
2018-07-12T18:52:36.982Z,11.40
2018-07-12T18:55:08.214Z,10.53
2018-07-12T18:57:37.395Z,13.27
2018-07-12T19:00:07.643Z,20.67
2018-07-12T19:02:36.722Z,12.60
2018-07-12T19:05:08.488Z,15.13
2018-07-12T19:07:38.356Z,15.33
2018-07-12T19:10:08.489Z,13.77
2018-07-12T19:12:37.480Z,12.73
2018-07-12T19:15:08.516Z,13.33
2018-07-12T19:17:38.590Z,12.53
2018-07-12T19:20:08.088Z,13.10
2018-07-12T19:22:37.205Z,13.17
2018-07-12T19:25:07.510Z,23.00
2018-07-12T19:27:36.628Z,16.87
2018-07-12T19:30:09.484Z,19.83
2018-07-12T19:32:39.604Z,16.47
2018-07-12T19:35:08.985Z,19.00
2018-07-12T19:37:38.689Z,16.33
2018-07-12T19:40:08.021Z,16.20
2018-07-12T19:42:37.210Z,15.27
2018-07-12T19:45:07.427Z,14.87
2018-07-12T19:47:36.651Z,14.90
2018-07-12T19:50:10.193Z,59.70
2018-07-12T19:52:40.463Z,31.27
2018-07-12T19:55:09.606Z,23.27
2018-07-12T19:57:40.574Z,42.80
2018-07-12T20:00:10.173Z,37.40
2018-07-12T20:02:39.425Z,30.33
2018-07-12T20:05:08.668Z,19.13
2018-07-12T20:07:37.903Z,23.27
2018-07-12T20:10:07.079Z,23.80
2018-07-12T20:12:37.083Z,18.27
2018-07-12T20:15:07.594Z,22.90
2018-07-12T20:17:36.827Z,26.90
2018-07-12T20:20:08.469Z,23.67
2018-07-12T20:22:38.119Z,19.43
2018-07-12T20:25:07.459Z,16.30
2018-07-12T20:27:36.938Z,26.67
2018-07-12T20:30:08.620Z,16.23
2018-07-12T20:32:37.901Z,21.37
2018-07-12T20:35:07.178Z,30.90
2018-07-12T20:37:36.443Z,38.67
2018-07-12T20:40:07.211Z,28.63
2018-07-12T20:42:36.827Z,23.57
2018-07-12T20:45:08.043Z,25.87
2018-07-12T20:47:37.128Z,28.27
2018-07-12T20:50:07.647Z,33.77
2018-07-12T20:52:36.617Z,17.60
2018-07-12T20:55:08.118Z,20.50
2018-07-12T20:57:37.303Z,16.77
2018-07-12T21:00:07.727Z,17.70
2018-07-12T21:02:37.118Z,19.67
2018-07-12T21:05:07.600Z,17.93
2018-07-12T21:07:37.140Z,17.03
2018-07-12T21:10:08.261Z,17.27
2018-07-12T21:12:37.495Z,17.67
2018-07-12T21:15:07.426Z,17.37
2018-07-12T21:17:36.506Z,17.43
2018-07-12T21:20:07.407Z,17.67
2018-07-12T21:22:36.642Z,17.60
2018-07-12T21:25:09.847Z,18.20
2018-07-12T21:27:39.131Z,18.60
2018-07-12T21:30:10.618Z,17.80
2018-07-12T21:32:39.605Z,18.90
2018-07-12T21:35:09.458Z,17.77
2018-07-12T21:37:39.039Z,18.63
2018-07-12T21:40:08.104Z,18.17
2018-07-12T21:42:37.283Z,36.33
2018-07-12T21:45:08.592Z,30.10
2018-07-12T21:47:38.347Z,31.27
2018-07-12T21:50:07.915Z,19.20
2018-07-12T21:52:37.362Z,25.10
2018-07-12T21:55:07.274Z,20.33
2018-07-12T21:57:36.855Z,22.03
2018-07-12T22:00:10.766Z,22.97
2018-07-12T22:02:40.087Z,20.00
2018-07-12T22:05:08.940Z,19.43
2018-07-12T22:08:05.147Z,19.30
2018-07-12T22:10:34.172Z,18.73
2018-07-12T22:13:03.082Z,19.80
2018-07-12T22:15:32.701Z,19.40
2018-07-12T22:18:02.716Z,22.63
2018-07-12T22:20:32.276Z,20.50
2018-07-12T22:23:01.808Z,18.70
2018-07-12T22:25:32.075Z,26.70
2018-07-12T22:28:01.329Z,19.50
2018-07-12T22:30:30.928Z,18.90
2018-07-12T22:33:01.632Z,21.07
2018-07-12T22:35:31.159Z,20.10
2018-07-12T22:38:02.127Z,22.40
2018-07-12T22:40:31.782Z,22.37
2018-07-12T22:43:00.828Z,19.60
2018-07-12T22:45:30.758Z,19.33
2018-07-12T22:48:00.322Z,21.73
2018-07-12T22:50:29.242Z,21.53
2018-07-12T22:52:58.438Z,22.20
2018-07-12T22:55:27.636Z,21.50
2018-07-12T22:57:56.631Z,19.30
2018-07-12T23:00:25.563Z,18.23
2018-07-12T23:02:54.963Z,17.90
2018-07-12T23:05:24.142Z,18.93
2018-07-12T23:07:54.535Z,18.77
2018-07-12T23:10:23.792Z,20.00
2018-07-12T23:12:53.079Z,22.30
2018-07-12T23:15:23.028Z,17.40
2018-07-12T23:17:52.382Z,18.00
2018-07-12T23:20:21.766Z,18.27
2018-07-12T23:22:50.892Z,16.70
2018-07-12T23:25:19.862Z,17.20
2018-07-12T23:27:48.954Z,18.07
2018-07-12T23:30:18.155Z,21.60
2018-07-12T23:32:47.215Z,18.83
2018-07-12T23:35:16.967Z,22.83
2018-07-12T23:37:46.062Z,20.80
2018-07-12T23:40:15.353Z,19.40
2018-07-12T23:42:44.454Z,19.37
2018-07-12T23:45:13.679Z,18.30
2018-07-12T23:47:42.970Z,19.37
2018-07-12T23:50:12.127Z,22.07
2018-07-12T23:52:41.110Z,22.37
2018-07-12T23:55:10.795Z,29.67
2018-07-12T23:57:39.995Z,22.77
